Time;durP1;ratioP1;P1;durP2;ratioP2;P2;SDS_P1;SDS_P2;PMS_P1;PMS_P2;Temp;Humidity;BMP_temperature;BMP_pressure;BME280_temperature;BME280_humidity;BME280_pressure;Samples;Min_cycle;Max_cycle;Signal;HPM_P1;HPM_P2
2021/05/22 00:00:07;;;;;;;1.48;0.30;;;27.60;31.40;;;;;;4390129;32;20081;-39
2021/05/22 00:02:34;;;;;;;2.40;0.32;;;27.60;31.50;;;;;;4390270;32;20513;-40
2021/05/22 00:05:00;;;;;;;0.30;0.20;;;27.50;31.50;;;;;;4389940;32;20509;-41
2021/05/22 00:07:27;;;;;;;1.33;0.20;;;27.50;31.60;;;;;;4390479;32;20513;-39
2021/05/22 00:09:53;;;;;;;0.47;0.40;;;27.50;31.50;;;;;;4389897;32;20097;-38
2021/05/22 00:12:20;;;;;;;1.60;0.20;;;27.40;31.50;;;;;;4389874;32;20155;-40
2021/05/22 00:14:46;;;;;;;0.40;0.20;;;27.40;31.50;;;;;;4389892;32;20080;-39
2021/05/22 00:17:13;;;;;;;2.35;0.17;;;27.40;31.50;;;;;;4390030;32;20097;-40
2021/05/22 00:19:39;;;;;;;0.85;0.43;;;27.40;31.50;;;;;;4389737;32;20066;-41
2021/05/22 00:22:05;;;;;;;0.90;0.20;;;27.40;31.50;;;;;;4389908;32;20108;-39
2021/05/22 00:24:32;;;;;;;0.50;0.20;;;27.40;31.50;;;;;;4389782;32;20068;-39
2021/05/22 00:26:58;;;;;;;2.53;0.10;;;27.40;31.30;;;;;;4375901;32;20069;-40
2021/05/22 00:29:24;;;;;;;0.77;0.20;;;27.40;32.00;;;;;;4389347;32;20046;-40
2021/05/22 00:31:51;;;;;;;1.50;0.30;;;27.40;31.20;;;;;;4375735;32;20089;-40
2021/05/22 00:34:17;;;;;;;0.20;0.20;;;27.40;31.20;;;;;;4389473;32;20597;-39
2021/05/22 00:36:44;;;;;;;2.28;0.30;;;27.40;31.00;;;;;;4389450;32;20073;-39
2021/05/22 00:39:10;;;;;;;0.40;0.20;;;27.40;30.90;;;;;;4389789;32;20066;-38
2021/05/22 00:41:36;;;;;;;1.37;0.28;;;27.40;30.90;;;;;;4389391;32;20062;-38
2021/05/22 00:44:04;;;;;;;8.25;0.30;;;27.40;30.80;;;;;;4389695;32;20066;-39
2021/05/22 00:46:30;;;;;;;1.15;0.52;;;27.40;30.70;;;;;;4389536;32;20509;-39
2021/05/22 00:48:57;;;;;;;0.90;0.28;;;27.40;30.60;;;;;;4389364;32;20073;-39
2021/05/22 00:51:26;;;;;;;1.87;0.30;;;27.40;30.60;;;;;;4375859;32;20058;-40
2021/05/22 00:53:53;;;;;;;1.02;0.30;;;27.40;30.60;;;;;;4389293;32;20096;-40
2021/05/22 00:56:19;;;;;;;0.40;0.10;;;27.40;30.40;;;;;;4389093;32;20086;-40
2021/05/22 00:58:46;;;;;;;7.35;0.77;;;27.40;30.30;;;;;;4362915;32;20070;-39
2021/05/22 01:01:12;;;;;;;1.25;0.20;;;27.40;30.40;;;;;;4389171;32;20089;-40
2021/05/22 01:03:49;;;;;;;0.60;0.28;;;27.40;30.40;;;;;;4389679;32;20077;-40
2021/05/22 01:06:25;;;;;;;1.33;0.30;;;27.40;30.30;;;;;;4389128;32;20078;-39
2021/05/22 01:09:09;;;;;;;0.90;0.30;;;27.40;30.40;;;;;;4389131;32;20078;-40
2021/05/22 01:11:50;;;;;;;0.50;0.30;;;27.40;30.40;;;;;;4388933;32;20092;-39
2021/05/22 01:14:39;;;;;;;0.47;0.20;;;27.40;30.20;;;;;;4363138;32;20134;-39
2021/05/22 01:17:06;;;;;;;1.52;0.30;;;27.40;30.20;;;;;;4388915;32;20141;-39
2021/05/22 01:19:41;;;;;;;0.30;0.20;;;27.50;30.10;;;;;;4374958;32;20066;-39
2021/05/22 01:22:07;;;;;;;1.60;0.20;;;27.50;30.00;;;;;;4402009;32;20133;-38
2021/05/22 01:24:50;;;;;;;0.17;0.17;;;27.50;30.00;;;;;;4404335;32;20061;-40
2021/05/22 01:27:17;;;;;;;3.55;0.40;;;27.60;30.00;;;;;;4403769;32;20069;-40
2021/05/22 01:29:44;;;;;;;0.40;0.30;;;27.70;30.00;;;;;;4390183;32;20600;-40
2021/05/22 01:32:10;;;;;;;1.33;0.20;;;27.70;30.00;;;;;;4404053;32;20068;-40
2021/05/22 01:34:37;;;;;;;2.85;0.30;;;27.80;30.10;;;;;;4389648;32;20123;-39
2021/05/22 01:37:03;;;;;;;1.25;0.30;;;27.80;30.00;;;;;;4389827;32;20157;-40
2021/05/22 01:39:30;;;;;;;3.92;0.32;;;27.90;30.00;;;;;;4403323;32;20058;-40
2021/05/22 01:41:56;;;;;;;1.08;0.30;;;27.90;30.20;;;;;;4403762;32;20161;-39
2021/05/22 01:44:24;;;;;;;0.82;0.30;;;28.00;30.00;;;;;;4389251;32;20500;-39
2021/05/22 01:46:50;;;;;;;1.37;0.37;;;28.00;30.10;;;;;;4389658;32;20092;-39
2021/05/22 01:49:17;;;;;;;1.70;0.20;;;28.00;30.20;;;;;;4403458;32;20065;-40
2021/05/22 01:51:43;;;;;;;4.50;0.30;;;27.90;30.30;;;;;;4389766;32;20065;-40
2021/05/22 01:54:10;;;;;;;6.70;0.30;;;27.90;30.70;;;;;;4377130;32;20065;-39
2021/05/22 01:56:37;;;;;;;0.85;0.30;;;27.80;30.40;;;;;;4388998;32;20062;-41
2021/05/22 01:59:04;;;;;;;2.62;0.40;;;27.70;30.70;;;;;;4389892;32;20144;-40
2021/05/22 02:01:31;;;;;;;2.25;0.50;;;27.70;30.90;;;;;;4389730;32;20077;-40
2021/05/22 02:04:02;;;;;;;1.12;0.20;;;27.50;30.90;;;;;;4389155;32;20097;-40
2021/05/22 02:06:30;;;;;;;1.45;0.22;;;27.50;30.80;;;;;;4389834;32;20065;-39
2021/05/22 02:08:58;;;;;;;1.75;0.40;;;27.50;31.00;;;;;;4376934;32;20096;-39
2021/05/22 02:11:27;;;;;;;2.78;0.30;;;27.50;31.10;;;;;;4403494;32;20129;-40
2021/05/22 02:13:55;;;;;;;2.53;0.30;;;27.50;31.20;;;;;;4385207;32;20070;-40
2021/05/22 02:16:26;;;;;;;2.00;0.30;;;27.60;31.00;;;;;;4385597;32;20579;-39
2021/05/22 02:18:53;;;;;;;1.85;0.30;;;27.70;31.00;;;;;;4373235;32;20230;-40
2021/05/22 02:21:22;;;;;;;0.90;0.35;;;27.80;30.90;;;;;;4365256;32;20097;-39
2021/05/22 02:23:49;;;;;;;0.55;0.20;;;27.90;30.90;;;;;;4345844;32;20069;-39
2021/05/22 02:26:16;;;;;;;3.08;0.30;;;28.00;30.80;;;;;;4370666;32;20138;-40
2021/05/22 02:28:42;;;;;;;0.82;0.20;;;28.00;30.70;;;;;;4346124;32;20097;-40
2021/05/22 02:31:09;;;;;;;1.02;0.30;;;28.00;30.50;;;;;;4345989;32;20071;-39
2021/05/22 02:33:37;;;;;;;1.02;0.17;;;28.00;30.60;;;;;;4358314;32;20058;-38
2021/05/22 02:36:04;;;;;;;0.47;0.30;;;28.00;30.50;;;;;;4357913;32;20556;-39
2021/05/22 02:38:57;;;;;;;1.90;0.20;;;28.00;30.30;;;;;;4358173;32;20070;-41
2021/05/22 02:41:23;;;;;;;1.15;0.40;;;28.00;30.20;;;;;;4347780;32;20072;-40
2021/05/22 02:43:52;;;;;;;1.15;0.20;;;28.00;30.00;;;;;;4371073;32;20125;-39
2021/05/22 02:46:19;;;;;;;0.80;0.30;;;28.20;30.00;;;;;;4374124;32;20070;-40
2021/05/22 02:48:46;;;;;;;2.15;0.20;;;28.30;29.90;;;;;;4373706;32;20548;-40
2021/05/22 02:51:13;;;;;;;0.90;0.20;;;28.50;29.80;;;;;;4330607;32;20078;-40
2021/05/22 02:53:40;;;;;;;0.80;0.30;;;28.60;29.70;;;;;;4343014;32;20070;-41
2021/05/22 02:56:07;;;;;;;2.58;0.20;;;28.80;29.50;;;;;;4342973;32;20074;-40
2021/05/22 02:58:36;;;;;;;0.47;0.20;;;29.00;29.70;;;;;;4355580;32;20165;-40
2021/05/22 03:01:03;;;;;;;2.78;0.30;;;29.20;29.60;;;;;;4343216;32;20070;-39
2021/05/22 03:03:30;;;;;;;0.70;0.30;;;29.40;29.30;;;;;;4355381;32;20155;-41
2021/05/22 03:06:00;;;;;;;1.17;0.20;;;29.60;29.10;;;;;;4343017;32;20162;-40
2021/05/22 03:08:27;;;;;;;1.17;0.22;;;29.80;29.00;;;;;;4344285;32;20157;-39
2021/05/22 03:10:55;;;;;;;1.98;0.20;;;29.90;28.90;;;;;;4357906;32;20073;-39
2021/05/22 03:13:22;;;;;;;1.50;0.30;;;29.90;28.70;;;;;;4358468;32;20089;-39
2021/05/22 03:15:48;;;;;;;4.18;0.40;;;30.00;28.80;;;;;;4358011;32;20229;-41
2021/05/22 03:18:15;;;;;;;4.50;0.30;;;30.00;28.90;;;;;;4358040;32;20063;-40
2021/05/22 03:20:41;;;;;;;1.80;0.20;;;30.10;28.70;;;;;;4362194;32;20084;-40
2021/05/22 03:23:08;;;;;;;1.30;0.30;;;30.20;28.70;;;;;;4388692;32;20141;-39
2021/05/22 03:25:34;;;;;;;1.90;0.28;;;30.20;28.60;;;;;;4390391;32;20070;-39
2021/05/22 03:28:00;;;;;;;0.30;0.20;;;30.20;28.60;;;;;;4390418;32;20068;-40
2021/05/22 03:30:27;;;;;;;1.75;0.20;;;30.20;28.60;;;;;;4390550;32;20089;-41
2021/05/22 03:32:53;;;;;;;1.65;0.20;;;30.10;28.60;;;;;;4390468;32;20061;-40
2021/05/22 03:35:20;;;;;;;0.93;0.30;;;30.30;28.70;;;;;;4388594;32;20058;-41
2021/05/22 03:37:46;;;;;;;7.60;0.95;;;30.50;28.60;;;;;;4390383;32;20058;-40
2021/05/22 03:40:13;;;;;;;1.05;0.20;;;30.70;28.40;;;;;;4390572;32;20070;-41
2021/05/22 03:42:39;;;;;;;3.53;0.40;;;31.00;28.20;;;;;;4388950;32;20072;-40
2021/05/22 03:45:07;;;;;;;1.98;0.30;;;31.10;28.10;;;;;;4390178;32;20073;-41
2021/05/22 03:47:34;;;;;;;0.52;0.17;;;31.30;28.00;;;;;;4388665;32;20089;-40
2021/05/22 03:50:01;;;;;;;2.37;0.30;;;31.30;27.80;;;;;;4388704;32;20080;-40
2021/05/22 03:52:27;;;;;;;4.35;0.30;;;31.40;28.00;;;;;;4390096;32;20077;-40
2021/05/22 03:54:54;;;;;;;2.35;0.30;;;31.40;28.00;;;;;;4390296;32;20066;-40
2021/05/22 03:57:20;;;;;;;3.28;0.30;;;31.40;27.90;;;;;;4390290;32;20163;-39
2021/05/22 03:59:47;;;;;;;2.30;0.20;;;31.30;28.00;;;;;;4388821;32;20093;-39
2021/05/22 04:02:13;;;;;;;1.75;0.35;;;31.30;28.00;;;;;;4390053;32;20077;-42
2021/05/22 04:04:40;;;;;;;5.85;0.30;;;31.30;27.90;;;;;;4390161;32;20458;-41
2021/05/22 04:07:06;;;;;;;5.05;0.22;;;31.30;27.70;;;;;;4389688;32;20073;-41
2021/05/22 04:09:33;;;;;;;0.82;0.20;;;31.30;27.90;;;;;;4389835;32;20097;-40
2021/05/22 04:11:59;;;;;;;2.37;0.20;;;31.40;27.80;;;;;;4389927;32;20065;-40
2021/05/22 04:14:26;;;;;;;0.95;0.30;;;31.50;27.70;;;;;;4389756;32;20053;-40
2021/05/22 04:16:52;;;;;;;1.62;0.40;;;31.60;27.50;;;;;;4389548;32;20066;-41
2021/05/22 04:19:19;;;;;;;2.15;0.22;;;31.70;27.40;;;;;;4389229;32;20607;-41
2021/05/22 04:21:45;;;;;;;3.37;0.20;;;31.70;27.40;;;;;;4389431;32;20050;-41
2021/05/22 04:24:12;;;;;;;0.73;0.20;;;31.60;27.40;;;;;;4389758;32;20090;-41
2021/05/22 04:26:38;;;;;;;1.48;0.65;;;31.50;27.30;;;;;;4389660;32;20070;-41
2021/05/22 04:29:05;;;;;;;0.60;0.20;;;31.50;27.50;;;;;;4375522;32;21165;-42
2021/05/22 04:31:31;;;;;;;1.85;0.57;;;31.50;27.60;;;;;;4389089;32;20050;-41
2021/05/22 04:33:58;;;;;;;0.75;0.20;;;31.50;27.60;;;;;;4375420;32;20469;-41
2021/05/22 04:36:24;;;;;;;1.60;0.30;;;31.50;27.70;;;;;;4389039;32;20088;-42
2021/05/22 04:38:52;;;;;;;3.03;0.30;;;31.50;27.70;;;;;;4389367;32;20678;-41
2021/05/22 04:41:19;;;;;;;2.53;0.20;;;31.40;27.80;;;;;;4389079;32;20555;-42
2021/05/22 04:43:45;;;;;;;3.03;0.30;;;31.40;27.90;;;;;;4389466;32;20073;-40
2021/05/22 04:46:12;;;;;;;3.33;0.30;;;31.40;27.80;;;;;;4389494;32;20096;-41
2021/05/22 04:48:38;;;;;;;2.37;0.50;;;31.40;27.70;;;;;;4388896;32;20081;-40
2021/05/22 04:51:06;;;;;;;1.98;0.30;;;31.30;27.60;;;;;;4389235;32;20058;-40
2021/05/22 04:53:33;;;;;;;3.62;0.32;;;31.30;27.90;;;;;;4374975;32;20081;-40
2021/05/22 04:56:00;;;;;;;2.70;0.20;;;31.20;28.20;;;;;;4389571;32;20085;-40
2021/05/22 04:58:26;;;;;;;2.78;0.73;;;31.00;28.40;;;;;;4389057;32;20058;-41
2021/05/22 05:00:52;;;;;;;4.50;0.30;;;30.80;28.60;;;;;;4389164;32;20132;-40
2021/05/22 05:03:19;;;;;;;1.17;0.20;;;30.80;28.80;;;;;;4388677;32;20062;-40
2021/05/22 05:05:45;;;;;;;3.40;0.30;;;30.70;28.80;;;;;;4389096;32;20058;-40
2021/05/22 05:08:20;;;;;;;3.42;0.20;;;30.70;28.90;;;;;;4388884;32;20212;-41
2021/05/22 05:10:47;;;;;;;2.37;0.20;;;30.80;28.80;;;;;;4389297;32;20061;-39
2021/05/22 05:13:15;;;;;;;3.90;0.40;;;30.80;29.00;;;;;;4388896;32;20552;-40
2021/05/22 05:15:42;;;;;;;10.43;0.85;;;30.90;29.00;;;;;;4388929;32;20535;-41
2021/05/22 05:18:10;;;;;;;2.10;0.20;;;30.80;29.00;;;;;;4375188;32;20520;-41
2021/05/22 05:20:37;;;;;;;6.12;0.37;;;30.80;29.20;;;;;;4378633;32;20497;-41
2021/05/22 05:23:03;;;;;;;7.37;0.43;;;30.80;29.40;;;;;;4404324;32;20053;-41
2021/05/22 05:25:30;;;;;;;0.68;0.20;;;30.80;29.60;;;;;;4403552;32;20069;-40
2021/05/22 05:27:56;;;;;;;3.03;0.30;;;30.80;29.50;;;;;;4385759;32;20066;-41
2021/05/22 05:30:23;;;;;;;2.72;0.20;;;30.90;29.60;;;;;;4385665;32;20080;-42
2021/05/22 05:32:49;;;;;;;2.28;0.20;;;31.00;29.50;;;;;;4385806;32;20157;-41
2021/05/22 05:35:16;;;;;;;0.52;0.22;;;31.20;29.30;;;;;;4386044;32;20088;-41
2021/05/22 05:37:42;;;;;;;4.32;0.20;;;31.60;29.30;;;;;;4385554;32;20510;-41
2021/05/22 05:40:10;;;;;;;6.43;0.28;;;32.00;29.10;;;;;;4385717;32;20640;-42
2021/05/22 05:42:37;;;;;;;3.22;0.30;;;32.30;28.80;;;;;;4385811;32;20090;-42
2021/05/22 05:45:06;;;;;;;3.70;0.30;;;32.70;28.60;;;;;;4385896;32;20077;-42
2021/05/22 05:47:32;;;;;;;7.00;0.30;;;33.10;28.30;;;;;;4385787;32;20081;-41
2021/05/22 05:49:58;;;;;;;2.70;0.30;;;33.50;28.00;;;;;;4385979;32;20076;-40
2021/05/22 05:52:25;;;;;;;5.75;0.40;;;34.00;27.80;;;;;;4385357;32;20677;-42
2021/05/22 05:54:51;;;;;;;5.07;0.40;;;34.40;27.90;;;;;;4385704;32;20077;-43
2021/05/22 05:57:18;;;;;;;11.50;0.43;;;34.80;27.10;;;;;;4385644;32;20068;-42
2021/05/22 05:59:44;;;;;;;2.62;0.30;;;35.30;26.80;;;;;;4400158;32;20057;-43
2021/05/22 06:02:11;;;;;;;3.28;0.50;;;35.80;26.40;;;;;;4403105;32;20081;-44
2021/05/22 06:04:37;;;;;;;3.53;0.28;;;36.20;26.10;;;;;;4403323;32;20076;-42
2021/05/22 06:07:03;;;;;;;5.43;0.37;;;36.50;25.70;;;;;;4403230;32;20146;-41
2021/05/22 06:09:30;;;;;;;2.55;0.30;;;36.80;25.50;;;;;;4389033;32;20128;-42
2021/05/22 06:11:57;;;;;;;4.72;0.30;;;37.10;25.20;;;;;;4402973;32;20064;-42
2021/05/22 06:14:32;;;;;;;2.00;0.50;;;37.20;25.00;;;;;;4403166;32;20066;-41
2021/05/22 06:16:59;;;;;;;1.73;0.30;;;37.20;25.00;;;;;;4389861;32;20433;-42
2021/05/22 06:19:25;;;;;;;4.50;0.20;;;37.00;24.90;;;;;;4402901;32;20065;-44
2021/05/22 06:21:51;;;;;;;7.00;0.68;;;36.80;25.20;;;;;;4377343;32;20082;-42
2021/05/22 06:24:18;;;;;;;3.17;0.30;;;36.60;25.40;;;;;;4387962;32;20062;-44
2021/05/22 06:26:44;;;;;;;2.70;0.20;;;36.30;25.60;;;;;;4388054;32;20110;-42
2021/05/22 06:29:13;;;;;;;7.40;0.50;;;36.20;25.80;;;;;;4373651;32;20065;-42
2021/05/22 06:31:40;;;;;;;3.17;0.30;;;36.00;25.90;;;;;;4387621;32;20069;-41
2021/05/22 06:34:07;;;;;;;4.12;0.45;;;35.70;26.00;;;;;;4388064;32;20084;-42
2021/05/22 06:36:33;;;;;;;5.57;0.28;;;35.40;26.30;;;;;;4387590;32;20080;-43
2021/05/22 06:38:59;;;;;;;2.37;0.20;;;35.10;26.60;;;;;;4387741;32;20058;-43
2021/05/22 06:41:26;;;;;;;0.75;0.20;;;34.90;26.60;;;;;;4387701;32;20097;-43
2021/05/22 06:43:52;;;;;;;6.53;0.68;;;35.00;26.70;;;;;;4391116;32;20121;-42
2021/05/22 06:48:45;;;;;;;8.27;0.30;;;35.30;26.50;;;;;;4390976;32;20077;-42
2021/05/22 06:51:12;;;;;;;3.58;0.20;;;35.40;26.50;;;;;;4390789;32;20074;-44
2021/05/22 06:53:38;;;;;;;8.93;0.80;;;35.40;26.20;;;;;;4390993;32;20076;-44
2021/05/22 06:56:06;;;;;;;9.20;0.30;;;35.40;26.30;;;;;;4376909;32;20070;-42
2021/05/22 06:58:32;;;;;;;1.85;0.22;;;35.40;26.20;;;;;;4390619;32;20077;-42
2021/05/22 07:00:59;;;;;;;4.82;0.40;;;35.40;26.30;;;;;;4376759;32;20077;-42
2021/05/22 07:03:25;;;;;;;2.40;0.40;;;35.20;26.30;;;;;;4390729;32;20054;-42
2021/05/22 07:05:52;;;;;;;2.30;0.20;;;35.10;26.50;;;;;;4377098;32;20153;-43
2021/05/22 07:08:19;;;;;;;10.40;0.40;;;34.90;26.60;;;;;;4376937;32;20054;-41
2021/05/22 07:10:47;;;;;;;6.35;0.30;;;34.70;26.70;;;;;;4390422;32;20097;-41
2021/05/22 07:13:13;;;;;;;4.55;0.30;;;34.40;26.80;;;;;;4390237;32;20085;-42
2021/05/22 07:15:40;;;;;;;2.05;0.30;;;34.30;26.80;;;;;;4390180;32;20074;-41
2021/05/22 07:18:06;;;;;;;9.95;0.50;;;34.10;26.90;;;;;;4390515;32;20057;-41
2021/05/22 07:20:32;;;;;;;8.05;0.28;;;34.00;27.00;;;;;;4379545;32;20207;-42
2021/05/22 07:22:59;;;;;;;3.40;0.25;;;33.80;27.10;;;;;;4405641;32;20077;-42
2021/05/22 07:25:25;;;;;;;0.95;0.20;;;33.70;27.20;;;;;;4405328;32;20596;-42
2021/05/22 07:27:53;;;;;;;6.07;0.47;;;33.60;27.30;;;;;;4391461;32;20137;-41
2021/05/22 07:30:20;;;;;;;6.68;0.47;;;33.60;27.50;;;;;;4405421;32;20093;-43
2021/05/22 07:32:47;;;;;;;3.80;0.50;;;33.70;27.40;;;;;;4378709;32;20085;-43
2021/05/22 07:35:14;;;;;;;3.33;0.37;;;33.70;27.40;;;;;;4404981;32;20153;-42
2021/05/22 07:37:41;;;;;;;3.72;0.47;;;33.70;27.00;;;;;;4404997;32;20077;-42
2021/05/22 07:40:09;;;;;;;4.70;0.47;;;33.60;26.80;;;;;;4405046;32;20073;-43
2021/05/22 07:42:36;;;;;;;14.87;0.68;;;33.50;26.90;;;;;;4405235;32;20072;-41
2021/05/22 07:45:03;;;;;;;4.70;0.47;;;33.50;27.10;;;;;;4405522;32;20170;-42
2021/05/22 07:47:30;;;;;;;5.60;0.65;;;33.30;27.40;;;;;;4405180;32;20099;-41
2021/05/22 07:49:56;;;;;;;4.90;0.52;;;33.10;27.80;;;;;;4405254;32;20145;-41
2021/05/22 07:52:23;;;;;;;10.35;0.43;;;32.80;28.00;;;;;;4378573;32;20169;-42
2021/05/22 07:54:50;;;;;;;5.90;0.50;;;32.50;28.40;;;;;;4404474;32;20174;-41
2021/05/22 07:57:17;;;;;;;7.85;0.77;;;32.20;28.80;;;;;;4391008;32;20096;-42
2021/05/22 07:59:44;;;;;;;12.85;1.33;;;32.00;29.10;;;;;;4390848;32;20109;-43
2021/05/22 08:02:10;;;;;;;7.93;0.82;;;31.90;29.20;;;;;;4404850;32;20073;-42
2021/05/22 08:04:36;;;;;;;4.78;0.50;;;31.80;29.20;;;;;;4404910;32;20089;-43
2021/05/22 08:07:03;;;;;;;7.32;0.40;;;31.70;29.30;;;;;;4405044;32;20172;-42
2021/05/22 08:09:29;;;;;;;5.80;0.60;;;31.60;29.30;;;;;;4404906;32;20069;-42
2021/05/22 08:11:56;;;;;;;9.82;0.70;;;31.50;29.40;;;;;;4390871;32;20632;-41
2021/05/22 08:14:22;;;;;;;5.68;0.35;;;31.40;29.70;;;;;;4404732;32;20085;-41
2021/05/22 08:16:49;;;;;;;3.33;0.40;;;31.30;29.90;;;;;;4404723;32;20085;-41
2021/05/22 08:19:15;;;;;;;8.85;0.70;;;31.20;29.90;;;;;;4388973;32;20074;-40
2021/05/22 08:21:42;;;;;;;4.87;0.50;;;31.20;30.00;;;;;;4391471;32;20153;-41
2021/05/22 08:24:10;;;;;;;2.50;0.30;;;31.30;30.00;;;;;;4386929;32;20078;-41
2021/05/22 08:26:38;;;;;;;7.47;0.70;;;31.30;30.10;;;;;;4386958;32;20062;-42
2021/05/22 08:29:05;;;;;;;2.40;0.50;;;31.20;30.80;;;;;;4386894;32;20131;-41
2021/05/22 08:31:33;;;;;;;11.40;0.75;;;31.20;30.30;;;;;;4386803;32;20066;-40
2021/05/22 08:34:00;;;;;;;9.63;0.40;;;31.20;30.50;;;;;;4387046;32;20171;-41
2021/05/22 08:36:27;;;;;;;4.35;0.50;;;31.20;30.40;;;;;;4374241;32;20088;-42
2021/05/22 08:38:53;;;;;;;5.78;0.80;;;31.30;30.40;;;;;;4386788;32;20066;-42
2021/05/22 08:41:20;;;;;;;3.83;0.50;;;31.50;30.00;;;;;;4386543;32;20100;-42
2021/05/22 08:43:48;;;;;;;2.17;0.40;;;31.70;29.70;;;;;;4386802;32;20174;-40
2021/05/22 08:46:16;;;;;;;6.15;0.60;;;31.80;29.60;;;;;;4386616;32;20120;-41
2021/05/22 08:48:43;;;;;;;6.40;1.02;;;31.90;29.40;;;;;;4362087;32;20571;-42
2021/05/22 08:51:10;;;;;;;3.53;0.50;;;32.00;29.40;;;;;;4375131;32;20147;-41
2021/05/22 08:53:37;;;;;;;7.68;0.70;;;32.20;29.30;;;;;;4374995;32;20086;-42
2021/05/22 08:56:04;;;;;;;3.45;0.82;;;32.30;29.00;;;;;;4389146;32;20127;-42
2021/05/22 08:58:30;;;;;;;3.12;0.70;;;32.30;28.70;;;;;;4374866;32;20059;-41
2021/05/22 09:00:57;;;;;;;6.32;0.57;;;32.40;28.60;;;;;;4389513;32;20080;-42
2021/05/22 09:03:24;;;;;;;10.18;0.50;;;32.40;28.60;;;;;;4388813;32;20118;-41
2021/05/22 09:05:50;;;;;;;7.53;0.80;;;32.40;28.60;;;;;;4388328;32;20053;-41
2021/05/22 09:08:17;;;;;;;6.40;0.40;;;32.40;28.40;;;;;;4375006;32;20086;-41
2021/05/22 09:10:49;;;;;;;20.40;1.25;;;32.30;28.10;;;;;;4388682;32;20101;-42
2021/05/22 09:13:29;;;;;;;4.18;0.50;;;32.30;28.00;;;;;;4388792;32;20505;-41
2021/05/22 09:16:09;;;;;;;2.40;0.30;;;32.40;28.10;;;;;;4374887;32;20053;-42
2021/05/22 09:18:38;;;;;;;6.20;0.30;;;32.50;28.00;;;;;;4388588;32;20092;-41
2021/05/22 09:21:07;;;;;;;5.07;0.40;;;32.60;27.90;;;;;;4395160;32;20057;-42
2021/05/22 09:23:36;;;;;;;10.18;0.40;;;32.70;28.00;;;;;;4403844;32;20142;-42
2021/05/22 09:26:13;;;;;;;4.12;0.30;;;32.80;27.80;;;;;;4404045;32;20161;-40
2021/05/22 09:28:49;;;;;;;3.67;0.35;;;33.00;27.80;;;;;;4403990;32;20097;-41
2021/05/22 09:31:20;;;;;;;5.35;0.37;;;33.10;27.50;;;;;;4403848;32;20065;-44
2021/05/22 09:33:47;;;;;;;8.30;0.60;;;33.30;27.60;;;;;;4389587;32;20515;-41
2021/05/22 09:36:16;;;;;;;3.70;0.40;;;33.50;27.40;;;;;;4403826;32;20483;-41
2021/05/22 09:38:50;;;;;;;5.70;0.30;;;33.80;27.20;;;;;;4403532;32;20476;-42
2021/05/22 09:41:24;;;;;;;4.18;0.37;;;34.00;27.20;;;;;;4403397;32;20060;-43
2021/05/22 09:44:22;;;;;;;5.68;0.30;;;34.20;26.90;;;;;;4403764;32;20068;-42
2021/05/22 09:46:50;;;;;;;2.72;0.50;;;34.30;26.80;;;;;;4403855;32;20900;-42
2021/05/22 09:49:19;;;;;;;6.60;0.40;;;34.50;26.80;;;;;;4403468;32;20062;-43
2021/05/22 09:52:07;;;;;;;2.67;0.32;;;34.60;26.70;;;;;;4403443;32;20080;-42
2021/05/22 09:54:57;;;;;;;5.95;0.35;;;34.80;26.70;;;;;;4403715;32;20084;-42
2021/05/22 09:57:35;;;;;;;3.35;0.20;;;35.00;26.50;;;;;;4403255;32;20583;-42
2021/05/22 10:00:26;;;;;;;3.17;0.30;;;35.30;26.40;;;;;;4403609;32;20168;-42
2021/05/22 10:02:57;;;;;;;2.20;0.30;;;35.40;26.10;;;;;;4403350;32;20068;-42
2021/05/22 10:05:35;;;;;;;6.97;0.40;;;35.50;26.10;;;;;;4403649;32;20074;-41
2021/05/22 10:08:04;;;;;;;7.50;0.40;;;35.50;25.90;;;;;;4403691;32;20509;-42
2021/05/22 10:10:40;;;;;;;3.95;0.40;;;35.50;26.00;;;;;;4389209;32;20088;-41
2021/05/22 10:13:08;;;;;;;2.37;0.47;;;35.40;26.10;;;;;;4389708;32;20597;-41
2021/05/22 10:15:34;;;;;;;6.07;0.30;;;35.50;26.10;;;;;;4403180;32;20062;-44
2021/05/22 10:18:02;;;;;;;5.78;0.35;;;35.40;26.10;;;;;;4389030;32;20073;-43
2021/05/22 10:20:28;;;;;;;1.50;0.50;;;35.30;26.40;;;;;;4400110;32;20073;-42
2021/05/22 10:22:55;;;;;;;3.30;0.40;;;35.20;26.50;;;;;;4387872;32;20145;-43
2021/05/22 10:25:21;;;;;;;6.25;0.37;;;35.00;26.50;;;;;;4373557;32;20104;-41
2021/05/22 10:27:51;;;;;;;6.10;0.50;;;34.90;26.60;;;;;;4387664;32;20062;-41
2021/05/22 10:30:19;;;;;;;3.95;0.40;;;34.80;26.70;;;;;;4361436;32;20509;-42
2021/05/22 10:32:46;;;;;;;14.85;0.40;;;34.70;26.80;;;;;;4387978;32;20082;-42
2021/05/22 10:35:23;;;;;;;2.97;0.70;;;34.60;26.90;;;;;;4374062;32;20161;-42
2021/05/22 10:37:50;;;;;;;6.37;0.82;;;34.50;27.10;;;;;;4374348;32;20093;-42
2021/05/22 10:40:40;;;;;;;6.82;0.40;;;34.40;27.20;;;;;;4387802;32;20053;-42
2021/05/22 10:43:06;;;;;;;5.50;0.43;;;34.40;27.30;;;;;;4387693;32;20061;-42
2021/05/22 10:45:37;;;;;;;3.67;0.45;;;34.30;27.20;;;;;;4387855;32;20593;-42
2021/05/22 10:48:07;;;;;;;3.30;0.32;;;34.20;27.20;;;;;;4388240;32;20735;-43
2021/05/22 10:50:45;;;;;;;3.80;0.40;;;34.20;27.20;;;;;;4388084;32;20168;-42
2021/05/22 10:53:25;;;;;;;4.97;0.60;;;34.20;27.20;;;;;;4374637;32;20062;-42
2021/05/22 10:56:13;;;;;;;6.12;0.40;;;34.30;27.40;;;;;;4387825;32;20066;-43
2021/05/22 10:58:58;;;;;;;3.85;0.60;;;34.40;27.30;;;;;;4387608;32;20085;-41
2021/05/22 11:01:25;;;;;;;3.47;0.40;;;34.60;27.10;;;;;;4387537;32;20073;-42
2021/05/22 11:04:15;;;;;;;12.48;1.10;;;34.80;26.40;;;;;;4387567;32;20060;-43
2021/05/22 11:06:48;;;;;;;3.95;0.50;;;35.10;26.50;;;;;;4387318;32;20155;-42
2021/05/22 11:11:56;;;;;;;16.17;0.50;;;35.60;26.30;;;;;;4387553;32;20069;-43
2021/05/22 11:14:40;;;;;;;11.38;0.43;;;35.70;26.10;;;;;;4387659;32;20058;-43
2021/05/22 11:17:21;;;;;;;8.68;0.40;;;35.90;25.90;;;;;;4387708;32;20574;-43
2021/05/22 11:20:07;;;;;;;6.82;0.50;;;36.10;26.00;;;;;;4387509;32;20534;-43
2021/05/22 11:22:56;;;;;;;9.27;0.47;;;36.30;26.10;;;;;;4388953;32;20145;-42
2021/05/22 11:25:23;;;;;;;6.72;1.15;;;36.50;26.10;;;;;;4402611;32;20057;-44
2021/05/22 11:27:53;;;;;;;7.12;0.50;;;36.60;26.00;;;;;;4403020;32;20065;-42
2021/05/22 11:30:38;;;;;;;7.37;0.62;;;36.70;25.80;;;;;;4405458;32;20074;-45
2021/05/22 11:33:06;;;;;;;10.43;0.50;;;36.90;25.80;;;;;;4406232;32;20062;-45
2021/05/22 11:35:35;;;;;;;9.15;0.80;;;37.00;26.10;;;;;;4404908;32;20520;-44
2021/05/22 11:38:21;;;;;;;7.45;1.33;;;37.20;25.50;;;;;;4391547;32;20058;-45
2021/05/22 11:40:51;;;;;;;11.32;0.80;;;37.50;25.60;;;;;;4405407;32;20541;-45
2021/05/22 11:43:29;;;;;;;11.98;0.77;;;37.70;25.20;;;;;;4405246;32;20129;-47
2021/05/22 11:45:58;;;;;;;6.62;0.93;;;38.00;25.30;;;;;;4405611;32;20054;-44
2021/05/22 11:48:51;;;;;;;12.50;1.45;;;38.30;25.40;;;;;;4405228;32;20177;-46
2021/05/22 11:51:30;;;;;;;9.82;2.12;;;38.50;25.40;;;;;;4405638;32;20157;-45
2021/05/22 11:54:01;;;;;;;15.65;1.27;;;38.60;25.00;;;;;;4405096;32;20449;-45
2021/05/22 11:56:31;;;;;;;9.05;0.85;;;38.70;25.00;;;;;;4404905;32;20480;-45
2021/05/22 11:58:58;;;;;;;9.65;2.12;;;38.70;24.80;;;;;;4390837;32;20149;-46
2021/05/22 12:01:33;;;;;;;14.13;1.48;;;38.80;24.70;;;;;;4390741;32;20104;-43
2021/05/22 12:04:10;;;;;;;17.27;1.50;;;38.80;24.80;;;;;;4390956;32;20157;-46
2021/05/22 12:06:41;;;;;;;9.88;1.12;;;38.80;25.00;;;;;;4405052;32;20069;-44
2021/05/22 12:09:22;;;;;;;8.70;1.60;;;38.90;25.30;;;;;;4405280;32;20060;-45
2021/05/22 12:12:04;;;;;;;16.08;1.50;;;39.00;25.40;;;;;;4405111;32;20054;-45
2021/05/22 12:14:47;;;;;;;10.38;1.27;;;39.10;25.30;;;;;;4404447;32;20541;-44
2021/05/22 12:17:18;;;;;;;9.77;1.20;;;39.10;25.10;;;;;;4404447;32;20615;-46
2021/05/22 12:19:50;;;;;;;25.98;2.35;;;39.10;24.90;;;;;;4404833;32;20164;-44
2021/05/22 12:22:18;;;;;;;28.10;11.35;;;39.00;24.90;;;;;;4390819;32;20057;-44
2021/05/22 12:24:45;;;;;;;26.35;15.80;;;38.70;24.80;;;;;;4375525;32;20150;-44
2021/05/22 12:27:14;;;;;;;24.55;10.52;;;38.60;24.90;;;;;;4363613;32;20150;-45
2021/05/22 12:29:46;;;;;;;19.55;6.15;;;38.40;24.90;;;;;;4363324;32;20058;-43
2021/05/22 12:32:13;;;;;;;19.77;6.22;;;38.40;25.00;;;;;;4363890;32;20057;-45
2021/05/22 12:34:40;;;;;;;21.95;5.72;;;38.30;25.40;;;;;;4389598;32;20070;-43
2021/05/22 12:37:20;;;;;;;26.92;7.72;;;38.30;25.60;;;;;;4372501;32;20442;-44
2021/05/22 12:39:49;;;;;;;46.17;23.58;;;38.40;25.20;;;;;;4374103;32;20157;-43
2021/05/22 12:42:22;;;;;;;53.17;22.45;;;38.50;25.40;;;;;;4374761;32;20153;-45
2021/05/22 12:44:51;;;;;;;31.40;13.13;;;38.50;25.40;;;;;;4374495;32;20050;-43
2021/05/22 12:47:21;;;;;;;21.55;5.95;;;38.60;25.50;;;;;;4372589;32;20054;-45
2021/05/22 12:49:56;;;;;;;12.90;2.65;;;38.90;25.40;;;;;;4374023;32;20560;-45
2021/05/22 12:52:22;;;;;;;14.50;2.40;;;39.10;25.30;;;;;;4374524;32;20077;-46
2021/05/22 12:54:49;;;;;;;15.13;3.00;;;39.20;25.10;;;;;;4374117;32;20055;-45
2021/05/22 12:57:34;;;;;;;12.90;2.45;;;39.40;25.10;;;;;;4374207;32;20149;-46
2021/05/22 13:00:04;;;;;;;15.23;1.80;;;39.50;25.00;;;;;;4374133;32;20059;-44